Terminal Aerodrome Forecast
Issued by NWS

Home | Current Version | Previous Version | Text Only | Print | Product List | Glossary On
Versions: 1 2 3 4 5 6 7 8 9 10 11 12 13 14 15 16 17 18 19 20 21 22 23 24 25 26 27 28 29 30 31 32
000
FTUS45 KGJT 221732
TAFMTJ
TAF
KMTJ 221732Z 2218/2318 20011G14KT P6SM BKN110
     FM221900 21015G25KT P6SM SCT080 BKN140
     FM230000 21011G20KT P6SM SCT090 BKN150
     FM230200 18006KT P6SM SCT090 BKN140
     FM230700 15005KT P6SM FEW080 SCT110
     FM231100 14004KT P6SM SCT070 BKN080=

USA.gov is the U.S. government's official web portal to all federal, state and local government web resources and services.